createdAt,value
2018-09-03T00:00:40.900Z,64.15
2018-09-03T00:01:40.901Z,64.35
2018-09-03T00:02:40.870Z,64.35
2018-09-03T00:03:40.865Z,64.95
2018-09-03T00:04:40.851Z,63.75
2018-09-03T00:05:40.836Z,64.35
2018-09-03T00:06:40.852Z,64.45
2018-09-03T00:07:40.816Z,64.69
2018-09-03T00:08:40.805Z,64.86
2018-09-03T00:09:40.806Z,64.98
2018-09-03T00:10:40.777Z,64.55
2018-09-03T00:11:40.766Z,65.69
2018-09-03T00:12:40.788Z,65.09
2018-09-03T00:13:40.739Z,65.19
2018-09-03T00:14:40.728Z,65.49
2018-09-03T00:15:40.723Z,65.39
2018-09-03T00:16:40.711Z,65.36
2018-09-03T00:17:40.694Z,65.39
2018-09-03T00:18:40.705Z,65.29
2018-09-03T00:19:40.673Z,65.29
2018-09-03T00:20:40.660Z,65.59
2018-09-03T00:21:40.651Z,65.69
2018-09-03T00:22:40.633Z,65.29
2018-09-03T00:23:40.630Z,65.39
2018-09-03T00:24:40.637Z,65.59
2018-09-03T00:25:40.607Z,65.39
2018-09-03T00:26:40.590Z,65.69
2018-09-03T00:27:40.582Z,65.99
2018-09-03T00:28:40.563Z,65.82
2018-09-03T00:29:40.560Z,65.39
2018-09-03T00:30:40.572Z,65.49
2018-09-03T00:31:40.532Z,65.39
2018-09-03T00:32:40.518Z,66.02
2018-09-03T00:33:40.512Z,66.30
2018-09-03T00:34:40.492Z,66.53
2018-09-03T00:35:40.490Z,66.53
2018-09-03T00:36:40.492Z,66.80
2018-09-03T00:37:40.504Z,66.90
2018-09-03T00:38:40.454Z,66.53
2018-09-03T00:39:40.433Z,66.93
2018-09-03T00:40:40.428Z,66.83
2018-09-03T00:41:40.432Z,66.83
2018-09-03T00:42:40.408Z,66.73
2018-09-03T00:43:40.392Z,66.73
2018-09-03T00:44:40.378Z,67.03
2018-09-03T00:45:40.369Z,67.23
2018-09-03T00:46:40.374Z,67.23
2018-09-03T00:47:40.349Z,66.93
2018-09-03T00:48:40.340Z,67.03
2018-09-03T00:49:40.325Z,67.33
2018-09-03T00:50:40.312Z,67.03
2018-09-03T00:51:40.320Z,67.23
2018-09-03T00:52:40.283Z,67.47
2018-09-03T00:53:40.275Z,67.47
2018-09-03T00:54:40.259Z,67.23
2018-09-03T00:55:40.255Z,67.36
2018-09-03T00:56:40.240Z,67.27
2018-09-03T00:57:40.255Z,67.33
2018-09-03T00:58:40.216Z,67.27
2018-09-03T00:59:40.207Z,67.43
2018-09-03T01:00:40.187Z,67.36
2018-09-03T01:01:40.179Z,67.63
2018-09-03T01:02:40.167Z,67.27
2018-09-03T01:03:40.183Z,67.47
2018-09-03T01:04:40.152Z,67.36
2018-09-03T01:05:40.134Z,67.97
2018-09-03T01:06:40.124Z,68.17
2018-09-03T01:07:40.110Z,67.67
2018-09-03T01:08:40.448Z,67.97
2018-09-03T01:09:40.087Z,68.01
2018-09-03T01:10:40.075Z,67.80
2018-09-03T01:11:40.066Z,68.30
2018-09-03T01:12:40.052Z,68.01
2018-09-03T01:13:40.044Z,68.41
2018-09-03T01:14:40.060Z,68.61
2018-09-03T01:15:40.015Z,68.54
2018-09-03T01:16:40.001Z,69.31
2018-09-03T01:17:40.001Z,69.15
2018-09-03T01:18:39.985Z,69.01
2018-09-03T01:19:39.996Z,68.95
2018-09-03T01:20:39.965Z,68.74
2018-09-03T01:21:39.954Z,68.95
2018-09-03T01:22:39.942Z,68.84
2018-09-03T01:23:39.930Z,69.35
2018-09-03T01:24:39.938Z,69.38
2018-09-03T01:25:39.905Z,69.89
2018-09-03T01:26:39.893Z,69.89
2018-09-03T01:27:39.880Z,69.89
2018-09-03T01:28:39.869Z,69.38
2018-09-03T01:29:39.909Z,69.55
2018-09-03T01:30:39.842Z,69.98
2018-09-03T01:31:39.839Z,69.35
2018-09-03T01:32:39.826Z,69.68
2018-09-03T01:33:39.817Z,69.89
2018-09-03T01:34:39.803Z,69.89
2018-09-03T01:35:39.813Z,69.68
2018-09-03T01:36:39.786Z,69.45
2018-09-03T01:37:39.763Z,69.89
2018-09-03T01:38:39.751Z,69.78
2018-09-03T01:39:39.743Z,69.58
2018-09-03T01:40:39.729Z,70.39
2018-09-03T01:41:39.745Z,69.78
2018-09-03T01:42:39.713Z,69.28
2018-09-03T01:43:39.694Z,69.45
2018-09-03T01:44:39.686Z,69.18
2018-09-03T01:45:39.676Z,69.15
2018-09-03T01:46:39.701Z,69.48
2018-09-03T01:47:39.647Z,69.55
2018-09-03T01:48:39.647Z,70.15
2018-09-03T01:49:39.626Z,69.95
2018-09-03T01:50:39.618Z,69.35
2018-09-03T01:51:39.618Z,69.65
2018-09-03T01:52:39.619Z,68.44
2018-09-03T01:53:39.588Z,68.33
2018-09-03T01:54:39.577Z,67.23
2018-09-03T01:55:39.560Z,68.27
2018-09-03T01:56:39.552Z,68.44
2018-09-03T01:57:39.539Z,69.28
2018-09-03T01:58:39.554Z,69.98
2018-09-03T01:59:39.522Z,69.48
2018-09-03T02:00:39.506Z,69.98
2018-09-03T02:01:39.507Z,69.48
2018-09-03T02:02:39.481Z,69.58
2018-09-03T02:03:39.467Z,70.09
2018-09-03T02:04:39.482Z,70.22
2018-09-03T02:05:39.455Z,70.02
2018-09-03T02:06:39.434Z,70.73
2018-09-03T02:07:39.428Z,70.53
2018-09-03T02:08:39.417Z,70.56
2018-09-03T02:09:39.400Z,69.85
2018-09-03T02:10:39.418Z,70.86
2018-09-03T02:11:39.374Z,70.76
2018-09-03T02:12:39.361Z,71.47
2018-09-03T02:13:39.353Z,71.80
2018-09-03T02:14:39.346Z,71.70
2018-09-03T02:15:39.335Z,71.50
2018-09-03T02:16:39.341Z,71.70
2018-09-03T02:17:39.309Z,72.11
2018-09-03T02:18:39.301Z,71.84
2018-09-03T02:19:39.281Z,73.02
2018-09-03T02:20:39.278Z,72.95
2018-09-03T02:21:39.289Z,72.92
2018-09-03T02:22:39.246Z,72.85
2018-09-03T02:23:39.244Z,72.85
2018-09-03T02:24:39.223Z,73.36
2018-09-03T02:25:39.221Z,73.12
2018-09-03T02:26:39.209Z,72.85
2018-09-03T02:27:39.218Z,73.25
2018-09-03T02:28:39.189Z,73.43
2018-09-03T02:29:39.165Z,73.15
2018-09-03T02:30:39.163Z,73.15
2018-09-03T02:31:39.152Z,73.25
2018-09-03T02:32:39.132Z,73.25
2018-09-03T02:33:39.152Z,73.76
2018-09-03T02:34:39.115Z,73.46
2018-09-03T02:35:39.101Z,72.81
2018-09-03T02:36:39.092Z,72.51
2018-09-03T02:37:39.078Z,73.15
2018-09-03T02:38:39.094Z,72.55
2018-09-03T02:39:39.058Z,72.81
2018-09-03T02:40:39.043Z,72.92
2018-09-03T02:41:39.035Z,72.81
2018-09-03T02:42:39.018Z,72.92
2018-09-03T02:43:39.009Z,73.32
2018-09-03T02:44:39.030Z,73.22
2018-09-03T02:45:38.991Z,72.72
2018-09-03T02:46:38.982Z,72.24
2018-09-03T02:47:38.962Z,72.01
2018-09-03T02:48:38.952Z,72.72
2018-09-03T02:49:38.938Z,73.25
2018-09-03T02:50:38.967Z,74.03
2018-09-03T02:51:38.917Z,74.37
2018-09-03T02:52:38.913Z,74.63
2018-09-03T02:53:38.895Z,74.67
2018-09-03T02:54:38.882Z,74.47
2018-09-03T02:55:38.879Z,73.86
2018-09-03T02:56:38.881Z,72.85
2018-09-03T02:57:38.855Z,72.92
2018-09-03T02:58:38.842Z,73.72
2018-09-03T02:59:38.828Z,73.63
2018-09-03T03:00:38.814Z,74.23
2018-09-03T03:01:38.830Z,74.03
2018-09-03T03:02:38.788Z,74.37
2018-09-03T03:03:38.785Z,74.57
2018-09-03T03:04:38.764Z,74.37
2018-09-03T03:05:38.763Z,74.43
2018-09-03T03:06:38.748Z,74.98
2018-09-03T03:07:38.775Z,74.74
2018-09-03T03:08:38.719Z,75.07
2018-09-03T03:09:38.719Z,74.98
2018-09-03T03:10:38.698Z,75.18
2018-09-03T03:11:38.724Z,75.28
2018-09-03T03:12:38.679Z,75.68
2018-09-03T03:13:38.688Z,75.48
2018-09-03T03:14:38.655Z,75.45
2018-09-03T03:15:38.640Z,75.18
2018-09-03T03:16:38.639Z,75.34
2018-09-03T03:17:38.617Z,75.14
2018-09-03T03:18:38.611Z,74.84
2018-09-03T03:19:38.625Z,75.38
2018-09-03T03:20:38.581Z,75.85
2018-09-03T03:21:38.572Z,75.55
2018-09-03T03:22:38.562Z,75.45
2018-09-03T03:23:38.543Z,74.54
2018-09-03T03:24:38.542Z,72.85
2018-09-03T03:25:38.550Z,73.02
2018-09-03T03:26:38.508Z,72.61
2018-09-03T03:27:38.504Z,71.91
2018-09-03T03:28:38.484Z,72.72
2018-09-03T03:29:38.480Z,72.81
2018-09-03T03:30:38.464Z,72.81
2018-09-03T03:31:38.483Z,73.43
2018-09-03T03:32:38.446Z,73.83
2018-09-03T03:33:38.431Z,74.23
2018-09-03T03:34:38.413Z,73.93
2018-09-03T03:35:38.404Z,74.13
2018-09-03T03:36:38.399Z,74.23
2018-09-03T03:37:38.407Z,74.43
2018-09-03T03:38:38.372Z,73.59
2018-09-03T03:39:38.357Z,73.93
2018-09-03T03:40:38.348Z,74.33
2018-09-03T03:41:38.342Z,73.99
2018-09-03T03:42:38.323Z,73.83
2018-09-03T03:43:38.346Z,73.99
2018-09-03T03:44:38.300Z,74.30
2018-09-03T03:45:38.292Z,74.19
2018-09-03T03:46:38.282Z,73.72
2018-09-03T03:47:38.266Z,74.50
2018-09-03T03:48:38.274Z,73.93
2018-09-03T03:49:38.279Z,72.78
2018-09-03T03:50:38.232Z,72.41
2018-09-03T03:51:38.224Z,72.68
2018-09-03T03:52:38.226Z,72.68
2018-09-03T03:53:38.196Z,72.58
2018-09-03T03:54:38.192Z,72.78
2018-09-03T03:55:38.205Z,72.78
2018-09-03T03:56:38.169Z,73.28
2018-09-03T03:57:38.154Z,72.58
2018-09-03T03:58:38.139Z,72.48
2018-09-03T03:59:38.135Z,72.88
2018-09-03T04:00:38.122Z,72.68
2018-09-03T04:01:38.137Z,72.58
2018-09-03T04:02:38.101Z,72.99
2018-09-03T04:03:38.080Z,72.78
2018-09-03T04:04:38.073Z,72.88
2018-09-03T04:05:38.064Z,72.99
2018-09-03T04:06:38.048Z,73.08
2018-09-03T04:07:38.071Z,73.39
2018-09-03T04:08:38.030Z,73.39
2018-09-03T04:09:38.017Z,73.39
2018-09-03T04:10:38.007Z,72.78
2018-09-03T04:11:37.993Z,72.78
2018-09-03T04:12:37.978Z,72.58
2018-09-03T04:13:38.031Z,72.78
2018-09-03T04:14:37.964Z,72.68
2018-09-03T04:15:37.951Z,71.47
2018-09-03T04:16:37.943Z,71.17
2018-09-03T04:17:37.922Z,70.36
2018-09-03T04:18:37.910Z,69.55
2018-09-03T04:19:37.944Z,70.46
2018-09-03T04:20:37.934Z,70.15
2018-09-03T04:21:37.886Z,70.56
2018-09-03T04:22:37.867Z,71.17
2018-09-03T04:23:37.876Z,71.17
2018-09-03T04:24:37.844Z,71.67
2018-09-03T04:25:37.865Z,72.38
2018-09-03T04:26:37.822Z,72.68
2018-09-03T04:27:37.814Z,72.58
2018-09-03T04:28:37.806Z,72.78
2018-09-03T04:29:37.790Z,72.72
2018-09-03T04:30:37.776Z,72.58
2018-09-03T04:31:37.799Z,72.81
2018-09-03T04:32:37.764Z,73.32
2018-09-03T04:33:37.750Z,73.32
2018-09-03T04:34:37.741Z,73.12
2018-09-03T04:35:37.716Z,73.93
2018-09-03T04:36:37.709Z,74.23
2018-09-03T04:37:37.726Z,74.37
2018-09-03T04:38:37.693Z,74.23
2018-09-03T04:39:37.676Z,74.23
2018-09-03T04:40:37.664Z,74.07
2018-09-03T04:41:37.649Z,74.37
2018-09-03T04:42:37.641Z,74.67
2018-09-03T04:43:37.655Z,74.57
2018-09-03T04:44:37.619Z,75.18
2018-09-03T04:45:37.604Z,74.77
2018-09-03T04:46:37.600Z,75.11
2018-09-03T04:47:37.579Z,75.82
2018-09-03T04:48:37.575Z,76.03
2018-09-03T04:49:37.586Z,74.51
2018-09-03T04:50:37.549Z,74.91
2018-09-03T04:51:37.536Z,75.96
2018-09-03T04:52:37.522Z,76.77
2018-09-03T04:53:37.518Z,77.07
2018-09-03T04:54:37.505Z,77.58
2018-09-03T04:55:37.523Z,78.08
2018-09-03T04:56:37.486Z,78.69
2018-09-03T04:57:37.464Z,78.49
2018-09-03T04:58:37.469Z,79.10
2018-09-03T04:59:37.440Z,79.10
2018-09-03T05:00:37.432Z,78.79
2018-09-03T05:01:37.453Z,79.10
2018-09-03T05:02:37.406Z,78.89
2018-09-03T05:03:37.405Z,79.26
2018-09-03T05:04:37.389Z,78.96
2018-09-03T05:05:37.394Z,79.10
2018-09-03T05:06:37.416Z,79.30
2018-09-03T05:07:37.384Z,79.40
2018-09-03T05:08:37.347Z,78.86
2018-09-03T05:09:37.327Z,79.06
2018-09-03T05:10:37.320Z,79.16
2018-09-03T05:11:37.344Z,78.66
2018-09-03T05:12:37.295Z,78.86
2018-09-03T05:13:37.317Z,78.66
2018-09-03T05:14:37.276Z,79.26
2018-09-03T05:15:37.268Z,78.96
2018-09-03T05:16:37.247Z,79.06
2018-09-03T05:17:37.244Z,78.86
2018-09-03T05:18:37.227Z,78.86
2018-09-03T05:19:37.254Z,78.86
2018-09-03T05:20:37.208Z,79.06
2018-09-03T05:21:37.189Z,78.96
2018-09-03T05:22:37.179Z,78.66
2018-09-03T05:23:37.178Z,79.26
2018-09-03T05:24:37.154Z,78.15
2018-09-03T05:25:37.180Z,78.25
2018-09-03T05:26:37.135Z,78.25
2018-09-03T05:27:37.127Z,77.75
2018-09-03T05:28:37.119Z,78.66
2018-09-03T05:29:37.098Z,79.26
2018-09-03T05:30:37.094Z,79.13
2018-09-03T05:31:37.103Z,79.16
2018-09-03T05:32:37.067Z,79.13
2018-09-03T05:33:37.059Z,78.52
2018-09-03T05:34:37.042Z,78.01
2018-09-03T05:35:37.040Z,78.31
2018-09-03T05:36:37.049Z,77.71
2018-09-03T05:37:37.016Z,78.05
2018-09-03T05:38:33.413Z,78.31
2018-09-03T05:39:38.882Z,78.52
2018-09-03T05:40:44.346Z,77.81
2018-09-03T05:41:24.590Z,78.01
2018-09-03T05:42:04.852Z,78.01
2018-09-03T05:42:39.071Z,77.71
2018-09-03T06:18:40.331Z,71.67
2018-09-03T06:19:16.055Z,71.57
2018-09-03T06:19:56.292Z,71.17
2018-09-03T06:20:41.655Z,71.17
2018-09-03T06:21:21.901Z,71.06
2018-09-03T06:22:27.378Z,72.99
2018-09-03T06:23:12.734Z,73.86
2018-09-03T06:23:53.010Z,74.50
2018-09-03T06:24:38.336Z,75.57
2018-09-03T06:25:18.600Z,75.57
2018-09-03T06:26:03.958Z,75.98
2018-09-03T06:26:43.074Z,75.37
2018-09-03T06:27:49.696Z,75.98
2018-09-03T06:28:55.210Z,75.48
2018-09-03T06:30:00.656Z,75.17
2018-09-03T06:30:46.024Z,75.27
2018-09-03T06:31:26.279Z,75.17
2018-09-03T06:32:11.654Z,74.73
2018-09-03T06:32:51.933Z,74.33
2018-09-03T06:33:57.430Z,74.84
2018-09-03T06:48:28.901Z,75.04
2018-09-03T06:49:02.229Z,75.13
2018-09-03T06:49:35.873Z,74.13
2018-09-03T06:50:09.535Z,73.62
2018-09-03T06:50:51.552Z,70.29
2018-09-03T06:51:35.111Z,73.32
2018-09-03T06:52:20.472Z,74.43
2018-09-03T06:53:46.070Z,74.19
2018-09-03T06:54:46.051Z,75.91
2018-09-03T06:55:46.075Z,76.31
2018-09-03T06:56:46.029Z,76.42
2018-09-03T06:57:42.752Z,77.83
2018-09-03T06:59:08.343Z,76.15
2018-09-03T07:00:13.814Z,77.53
2018-09-03T07:01:39.443Z,74.19
2018-09-03T07:02:44.898Z,75.60
2018-09-03T07:04:10.497Z,77.62
2018-09-03T07:05:15.982Z,77.22
2018-09-03T07:06:21.463Z,76.58
2018-09-03T07:07:06.847Z,76.58
2018-09-03T07:07:45.866Z,76.58
2018-09-03T07:08:52.545Z,76.42
2018-09-03T07:09:32.796Z,76.28
2018-09-03T07:10:18.149Z,75.87
2018-09-03T07:11:23.636Z,75.91
2018-09-03T07:12:49.279Z,75.07
2018-09-03T07:14:14.858Z,74.90
2018-09-03T07:15:20.330Z,75.47
2018-09-03T07:16:45.957Z,73.69
2018-09-03T07:17:51.472Z,70.73
2018-09-03T07:19:17.059Z,72.75
2018-09-03T07:20:22.551Z,70.53
2018-09-03T07:21:28.045Z,70.12
2018-09-03T07:31:52.566Z,72.61
2018-09-03T07:32:58.014Z,71.50
2018-09-03T07:33:43.364Z,68.77
2018-09-03T07:34:23.621Z,69.59
2018-09-03T07:35:09.012Z,72.61
2018-09-03T07:35:49.226Z,72.41
2018-09-03T07:36:34.575Z,72.81
2018-09-03T07:37:14.865Z,74.22
2018-09-03T07:38:00.187Z,75.13
2018-09-03T07:39:05.672Z,74.83
2018-09-03T07:40:31.282Z,73.72
2018-09-03T07:41:36.755Z,74.32
2018-09-03T07:42:42.262Z,74.52
2018-09-03T07:43:22.506Z,74.12
2018-09-03T07:44:07.897Z,73.62
2018-09-03T07:45:33.483Z,72.81
2018-09-03T07:46:59.080Z,73.42
2018-09-03T07:48:04.607Z,72.91
2018-09-03T07:49:30.193Z,72.61
2018-09-03T07:50:35.683Z,72.51
2018-09-03T07:51:41.167Z,72.81
2018-09-03T07:52:46.654Z,72.71
2018-09-03T07:53:26.939Z,71.37
2018-09-03T07:54:12.260Z,71.10
2018-09-03T07:55:37.884Z,71.57
2018-09-03T07:57:03.504Z,72.27
2018-09-03T07:58:08.979Z,72.38
2018-09-03T07:59:08.998Z,72.58
2018-09-03T08:00:08.962Z,72.98
2018-09-03T08:01:08.964Z,72.47
2018-09-03T08:02:08.938Z,72.67
2018-09-03T08:03:08.915Z,72.54
2018-09-03T08:04:36.790Z,72.58
2018-09-03T08:05:42.252Z,72.94
2018-09-03T08:06:47.731Z,72.88
2018-09-03T08:07:53.209Z,72.74
2018-09-03T08:08:33.457Z,74.99
2018-09-03T08:09:38.981Z,74.59
2018-09-03T08:10:44.441Z,74.05
2018-09-03T08:11:44.425Z,73.45
2018-09-03T08:12:44.456Z,73.55
2018-09-03T08:13:44.407Z,72.78
2018-09-03T08:14:44.421Z,73.45
2018-09-03T08:15:44.378Z,73.25
2018-09-03T08:16:44.399Z,72.85
2018-09-03T08:17:44.353Z,72.85
2018-09-03T08:18:44.348Z,73.65
2018-09-03T08:19:44.335Z,73.45
2018-09-03T08:20:44.348Z,72.64
2018-09-03T08:21:44.317Z,72.85
2018-09-03T08:22:44.300Z,74.66
2018-09-03T08:23:44.295Z,75.43
2018-09-03T08:24:44.277Z,74.42
2018-09-03T08:25:50.985Z,74.52
2018-09-03T08:26:50.947Z,73.72
2018-09-03T08:28:22.053Z,70.79
2018-09-03T08:29:22.037Z,72.51
2018-09-03T08:30:22.028Z,69.99
2018-09-03T08:31:22.048Z,72.47
2018-09-03T08:32:22.003Z,71.87
2018-09-03T08:33:21.988Z,71.50
2018-09-03T08:34:21.981Z,72.41
2018-09-03T08:35:21.965Z,72.47
2018-09-03T08:36:21.957Z,72.67
2018-09-03T08:37:21.972Z,70.86
2018-09-03T08:38:21.935Z,70.66
2018-09-03T08:39:21.917Z,71.67
2018-09-03T08:40:21.913Z,71.03
2018-09-03T08:41:21.892Z,71.56
2018-09-03T08:42:21.892Z,71.63
2018-09-03T08:43:21.902Z,71.16
2018-09-03T08:44:21.865Z,71.23
2018-09-03T08:45:21.855Z,69.92
2018-09-03T08:46:21.842Z,70.46
2018-09-03T08:47:21.830Z,69.82
2018-09-03T08:48:21.820Z,70.83
2018-09-03T08:49:21.827Z,70.93
2018-09-03T08:50:21.853Z,70.53
2018-09-03T08:51:21.775Z,70.73
2018-09-03T08:52:21.776Z,71.23
2018-09-03T08:53:21.757Z,69.92
2018-09-03T08:54:21.750Z,70.43
2018-09-03T08:55:21.763Z,70.93
2018-09-03T08:56:21.723Z,71.13
2018-09-03T08:57:21.710Z,71.73
2018-09-03T08:58:21.700Z,71.13
2018-09-03T08:59:21.682Z,69.32
2018-09-03T09:00:21.673Z,71.50
2018-09-03T09:01:21.694Z,70.79
2018-09-03T09:02:21.650Z,71.30
2018-09-03T09:03:21.645Z,71.30
2018-09-03T09:04:21.625Z,70.89
2018-09-03T09:05:21.615Z,70.39
2018-09-03T09:06:21.599Z,70.70
2018-09-03T09:07:21.628Z,71.09
2018-09-03T09:08:21.575Z,70.66
2018-09-03T09:09:21.572Z,70.70
2018-09-03T09:10:21.554Z,70.66
2018-09-03T09:11:21.541Z,69.96
2018-09-03T09:12:21.538Z,67.65
2018-09-03T09:13:21.549Z,69.96
2018-09-03T09:14:21.515Z,70.06
2018-09-03T09:15:21.497Z,70.16
2018-09-03T09:16:21.492Z,70.12
2018-09-03T09:17:21.473Z,69.15
2018-09-03T09:18:21.466Z,70.46
2018-09-03T09:19:21.475Z,70.63
2018-09-03T09:20:21.436Z,70.53
2018-09-03T09:21:21.429Z,70.73
2018-09-03T09:22:21.420Z,69.22
2018-09-03T09:23:21.407Z,70.32
2018-09-03T09:24:21.413Z,70.03
2018-09-03T09:25:21.408Z,70.23
2018-09-03T09:26:21.374Z,70.12
2018-09-03T09:27:21.356Z,70.23
2018-09-03T09:28:21.348Z,70.06
2018-09-03T09:29:21.340Z,70.26
2018-09-03T09:30:21.320Z,70.56
2018-09-03T09:31:21.339Z,70.66
2018-09-03T09:32:21.305Z,70.46
2018-09-03T09:33:21.293Z,70.86
2018-09-03T09:34:21.282Z,70.66
2018-09-03T09:35:21.270Z,70.86
2018-09-03T09:36:21.257Z,70.96
2018-09-03T09:37:21.274Z,70.76
2018-09-03T09:38:21.231Z,70.86
2018-09-03T09:39:21.215Z,70.46
2018-09-03T09:40:21.209Z,70.36
2018-09-03T09:41:21.194Z,70.79
2018-09-03T09:42:21.185Z,70.79
2018-09-03T09:43:21.195Z,71.60
2018-09-03T09:44:21.164Z,71.43
2018-09-03T09:45:21.143Z,71.33
2018-09-03T09:46:21.140Z,71.73
2018-09-03T09:47:21.129Z,72.34
2018-09-03T09:48:21.108Z,72.34
2018-09-03T09:49:21.131Z,71.83
2018-09-03T09:50:21.133Z,71.30
2018-09-03T09:51:21.072Z,71.23
2018-09-03T09:52:21.064Z,72.54
2018-09-03T09:53:21.055Z,72.24
2018-09-03T09:54:21.043Z,72.34
2018-09-03T09:55:21.054Z,72.24
2018-09-03T09:56:21.021Z,72.64
2018-09-03T09:57:21.000Z,72.20
2018-09-03T09:58:20.998Z,72.24
2018-09-03T09:59:20.980Z,72.34
2018-09-03T10:00:20.972Z,72.64
2018-09-03T10:01:20.986Z,72.54
2018-09-03T10:02:20.949Z,72.64
2018-09-03T10:03:20.931Z,72.30
2018-09-03T10:04:20.942Z,72.20
2018-09-03T10:05:20.907Z,72.30
2018-09-03T10:06:20.905Z,71.56
2018-09-03T10:07:20.909Z,71.16
2018-09-03T10:08:20.877Z,70.86
2018-09-03T10:09:20.870Z,70.46
2018-09-03T10:10:20.848Z,69.92
2018-09-03T10:11:20.868Z,69.99
2018-09-03T10:12:20.834Z,69.89
2018-09-03T10:13:20.821Z,69.89
2018-09-03T10:14:20.801Z,69.56
2018-09-03T10:15:20.791Z,69.85
2018-09-03T10:16:20.788Z,69.35
2018-09-03T10:17:20.801Z,68.82
2018-09-03T10:18:20.758Z,68.62
2018-09-03T10:19:20.764Z,67.29
2018-09-03T10:20:20.738Z,64.37
2018-09-03T10:21:20.725Z,64.54
2018-09-03T10:22:20.709Z,65.75
2018-09-03T10:23:20.726Z,65.75
2018-09-03T10:24:20.693Z,65.22
2018-09-03T10:25:20.682Z,64.89
2018-09-03T10:26:20.677Z,63.01
2018-09-03T10:27:20.651Z,63.48
2018-09-03T10:28:20.647Z,63.45
2018-09-03T10:29:20.658Z,63.65
2018-09-03T10:30:20.618Z,62.95
2018-09-03T10:31:20.606Z,61.12
2018-09-03T10:32:20.598Z,62.12
2018-09-03T10:33:20.589Z,61.02
2018-09-03T10:34:20.570Z,62.32
2018-09-03T10:35:20.587Z,60.29
2018-09-03T10:36:20.554Z,61.29
2018-09-03T10:37:20.538Z,60.89
2018-09-03T10:38:20.535Z,60.69
2018-09-03T10:39:20.516Z,60.16
2018-09-03T10:40:20.507Z,57.54
2018-09-03T10:41:20.522Z,59.74
2018-09-03T10:42:20.483Z,59.41
2018-09-03T10:43:20.469Z,60.11
2018-09-03T10:44:20.461Z,60.31
2018-09-03T10:45:20.446Z,57.48
2018-09-03T10:46:20.443Z,59.55
2018-09-03T10:47:20.534Z,58.89
2018-09-03T10:48:20.418Z,56.38
2018-09-03T10:49:20.397Z,56.57
2018-09-03T10:50:20.394Z,56.25
2018-09-03T10:51:20.385Z,55.65
2018-09-03T10:52:20.363Z,55.23
2018-09-03T10:53:20.391Z,53.53
2018-09-03T10:54:20.342Z,52.51
2018-09-03T10:55:20.337Z,51.50
2018-09-03T10:56:20.324Z,50.90
2018-09-03T10:57:20.316Z,53.26
2018-09-03T10:58:20.299Z,53.36
2018-09-03T10:59:20.325Z,53.96
2018-09-03T11:00:20.281Z,53.76
2018-09-03T11:01:20.271Z,53.46
2018-09-03T11:02:20.256Z,53.56
2018-09-03T11:03:20.251Z,52.96
2018-09-03T11:04:20.231Z,53.53
2018-09-03T11:05:20.273Z,53.33
2018-09-03T11:06:20.208Z,53.04
2018-09-03T11:07:20.202Z,53.70
2018-09-03T11:08:20.195Z,52.42
2018-09-03T11:09:20.173Z,52.31
2018-09-03T11:10:20.172Z,52.22
2018-09-03T11:11:20.187Z,52.72
2018-09-03T11:12:20.147Z,52.31
2018-09-03T11:13:20.144Z,51.23
2018-09-03T11:14:20.154Z,53.31
2018-09-03T11:15:20.136Z,51.30
2018-09-03T11:16:20.103Z,53.11
2018-09-03T11:17:20.125Z,52.81
2018-09-03T11:18:20.075Z,53.61
2018-09-03T11:19:20.066Z,54.77
2018-09-03T11:20:20.062Z,51.82
2018-09-03T11:21:20.128Z,52.39
2018-09-03T11:22:20.037Z,52.29
2018-09-03T11:23:20.050Z,51.70
2018-09-03T11:24:20.009Z,51.28
2018-09-03T11:25:20.007Z,51.97
2018-09-03T11:26:19.985Z,52.94
2018-09-03T11:27:19.984Z,51.45
2018-09-03T11:28:19.966Z,50.76
2018-09-03T11:29:19.980Z,49.91
2018-09-03T11:30:19.947Z,50.31
2018-09-03T11:31:19.933Z,49.22
2018-09-03T11:32:19.927Z,48.90
2018-09-03T11:33:19.955Z,49.40
2018-09-03T11:34:19.905Z,48.18
2018-09-03T11:35:19.931Z,48.38
2018-09-03T11:36:19.881Z,48.46
2018-09-03T11:37:19.875Z,47.96
2018-09-03T11:38:19.853Z,48.06
2018-09-03T11:39:19.843Z,47.77
2018-09-03T11:40:19.843Z,48.06
2018-09-03T11:41:19.853Z,48.68
2018-09-03T11:42:19.811Z,48.68
2018-09-03T11:43:19.799Z,48.48
2018-09-03T11:44:19.792Z,49.59
2018-09-03T11:45:19.787Z,48.60
2018-09-03T11:46:19.766Z,48.72
2018-09-03T11:47:19.786Z,48.45
2018-09-03T11:48:19.748Z,50.93
2018-09-03T11:49:19.734Z,50.83
2018-09-03T11:50:19.726Z,50.95
2018-09-03T11:51:19.709Z,50.95
2018-09-03T11:52:19.706Z,52.17
2018-09-03T11:53:19.715Z,52.37
2018-09-03T11:54:19.699Z,51.30
2018-09-03T11:55:19.667Z,52.29
2018-09-03T11:56:19.659Z,53.08
2018-09-03T11:57:19.643Z,52.79
2018-09-03T11:58:19.634Z,50.73
2018-09-03T11:59:19.647Z,53.38
2018-09-03T12:00:19.615Z,53.51
2018-09-03T12:01:19.596Z,53.93
2018-09-03T12:02:19.592Z,53.93
2018-09-03T12:03:19.578Z,55.25
2018-09-03T12:04:19.562Z,55.74
2018-09-03T12:05:19.587Z,54.38
2018-09-03T12:06:19.542Z,55.25
2018-09-03T12:07:19.533Z,54.95
2018-09-03T12:08:19.514Z,55.44
2018-09-03T12:09:19.512Z,54.95
2018-09-03T12:10:19.490Z,54.25
2018-09-03T12:11:19.513Z,55.15
2018-09-03T12:12:19.473Z,55.35
2018-09-03T12:13:19.464Z,55.44
2018-09-03T12:14:19.444Z,54.06
2018-09-03T12:15:19.438Z,55.25
2018-09-03T12:16:19.423Z,54.46
2018-09-03T12:17:19.436Z,55.15
2018-09-03T12:18:19.410Z,55.65
2018-09-03T12:19:19.385Z,56.12
2018-09-03T12:20:19.383Z,55.85
2018-09-03T12:21:19.364Z,54.85
2018-09-03T12:22:19.389Z,54.25
2018-09-03T12:23:19.350Z,55.65
2018-09-03T12:24:19.336Z,55.74
2018-09-03T12:25:19.323Z,54.55
2018-09-03T12:26:19.312Z,54.63
2018-09-03T12:27:19.300Z,54.72
2018-09-03T12:28:19.313Z,55.15
2018-09-03T12:29:19.273Z,54.65
2018-09-03T12:30:19.269Z,55.02
2018-09-03T12:31:19.316Z,54.23
2018-09-03T12:32:19.242Z,55.65
2018-09-03T12:33:19.229Z,54.82
2018-09-03T12:34:19.242Z,55.02
2018-09-03T12:35:19.206Z,54.63
2018-09-03T12:36:19.196Z,54.93
2018-09-03T12:37:19.182Z,55.72
2018-09-03T12:38:19.173Z,54.16
2018-09-03T12:39:19.157Z,55.35
2018-09-03T12:40:19.183Z,55.57
2018-09-03T12:41:19.132Z,56.17
2018-09-03T12:42:19.129Z,55.57
2018-09-03T12:43:19.118Z,55.90
2018-09-03T12:44:19.099Z,56.17
2018-09-03T12:45:19.096Z,56.67
2018-09-03T12:46:19.122Z,56.34
2018-09-03T12:47:19.069Z,56.34
2018-09-03T12:48:19.061Z,55.74
2018-09-03T12:49:19.047Z,55.91
2018-09-03T12:50:19.088Z,54.43
2018-09-03T12:51:19.062Z,54.30
2018-09-03T12:52:19.038Z,54.82
2018-09-03T12:53:19.002Z,55.00
2018-09-03T12:54:18.987Z,55.40
2018-09-03T12:55:18.976Z,56.49
2018-09-03T12:56:18.968Z,55.62
2018-09-03T12:57:18.951Z,57.70
2018-09-03T12:58:18.983Z,55.91
2018-09-03T12:59:18.928Z,55.62
2018-09-03T13:00:18.923Z,55.74
2018-09-03T13:01:18.905Z,56.74
2018-09-03T13:02:18.895Z,56.96
2018-09-03T13:03:18.883Z,56.94
2018-09-03T13:04:18.907Z,56.67
2018-09-03T13:05:18.860Z,56.47
2018-09-03T13:06:18.913Z,56.84
2018-09-03T13:07:18.843Z,56.34
2018-09-03T13:08:18.824Z,57.34
2018-09-03T13:09:18.813Z,56.32
2018-09-03T13:10:18.835Z,56.61
2018-09-03T13:11:18.788Z,55.62
2018-09-03T13:12:18.785Z,55.19
2018-09-03T13:13:18.772Z,54.50
2018-09-03T13:14:18.757Z,54.60
2018-09-03T13:15:18.745Z,54.28
2018-09-03T13:16:18.767Z,53.98
2018-09-03T13:17:18.730Z,54.35
2018-09-03T13:18:18.708Z,53.23
2018-09-03T13:19:18.704Z,53.63
2018-09-03T13:20:18.695Z,53.13
2018-09-03T13:21:18.681Z,52.91
2018-09-03T13:22:18.702Z,52.22
2018-09-03T13:23:18.652Z,51.62
2018-09-03T13:24:18.648Z,51.20
2018-09-03T13:25:18.638Z,50.60
2018-09-03T13:26:18.629Z,50.90
2018-09-03T13:27:18.610Z,50.88
2018-09-03T13:28:18.624Z,50.98
2018-09-03T13:29:18.593Z,51.37
2018-09-03T13:30:18.580Z,51.07
2018-09-03T13:31:18.563Z,50.68
2018-09-03T13:32:18.561Z,50.56
2018-09-03T13:33:18.577Z,49.87
2018-09-03T13:34:18.539Z,50.56
2018-09-03T13:35:18.526Z,49.37
2018-09-03T13:36:18.512Z,50.06
2018-09-03T13:37:18.499Z,50.76
2018-09-03T13:38:18.495Z,50.76
2018-09-03T13:39:18.505Z,50.58
2018-09-03T13:40:18.468Z,50.85
2018-09-03T13:41:18.514Z,49.99
2018-09-03T13:42:18.516Z,50.85
2018-09-03T13:43:18.428Z,51.07
2018-09-03T13:44:18.425Z,50.88
2018-09-03T13:45:18.438Z,51.07
2018-09-03T13:46:18.403Z,51.67
2018-09-03T13:47:18.392Z,51.37
2018-09-03T13:48:18.463Z,51.47